Time;durP1;ratioP1;P1;durP2;ratioP2;P2;SDS_P1;SDS_P2;PMS_P1;PMS_P2;Temp;Humidity;BMP_temperature;BMP_pressure;BME280_temperature;BME280_humidity;BME280_pressure;Samples;Min_cycle;Max_cycle;Signal;HPM_P1;HPM_P2
2023/03/08 00:01:24;;;;;;;9.25;4.57;;;;;;;;;;5007466;28;20101;-64
2023/03/08 00:03:57;;;;;;;10.40;5.28;;;;;;;;;;5009984;28;20033;-65
2023/03/08 00:06:25;;;;;;;9.10;4.93;;;;;;;;;;5012632;28;20376;-65
2023/03/08 00:08:58;;;;;;;16.75;5.13;;;;;;;;;;5012288;28;20037;-65
2023/03/08 00:11:26;;;;;;;11.27;6.30;;;;;;;;;;5012080;28;20211;-65
2023/03/08 00:13:55;;;;;;;9.93;4.82;;;;;;;;;;5012642;28;20022;-65
2023/03/08 00:16:22;;;;;;;12.57;4.30;;;;;;;;;;5009180;28;20109;-65
2023/03/08 00:18:48;;;;;;;6.78;5.25;;;;;;;;;;5007401;28;20026;-64
2023/03/08 00:21:16;;;;;;;17.60;5.15;;;;;;;;;;5007117;28;20029;-65
2023/03/08 00:23:43;;;;;;;10.18;4.97;;;;;;;;;;5007264;28;20029;-64
2023/03/08 00:26:11;;;;;;;7.40;4.63;;;;;;;;;;5009675;28;20026;-64
2023/03/08 00:28:38;;;;;;;7.65;5.30;;;;;;;;;;5011870;28;20026;-65
2023/03/08 00:31:06;;;;;;;7.28;5.35;;;;;;;;;;5012498;28;20084;-64
2023/03/08 00:33:33;;;;;;;10.50;5.68;;;;;;;;;;5012272;28;20057;-65
2023/03/08 00:36:01;;;;;;;8.65;5.50;;;;;;;;;;5012330;28;20073;-65
2023/03/08 00:38:28;;;;;;;8.30;5.05;;;;;;;;;;5009623;28;20026;-65
2023/03/08 00:40:55;;;;;;;10.40;6.23;;;;;;;;;;5006963;28;20030;-65
2023/03/08 00:43:22;;;;;;;12.60;5.80;;;;;;;;;;5006990;28;20026;-65
2023/03/08 00:45:49;;;;;;;7.83;4.73;;;;;;;;;;5006454;28;20030;-65
2023/03/08 00:48:15;;;;;;;8.17;4.57;;;;;;;;;;5008722;28;20645;-64
2023/03/08 00:50:42;;;;;;;8.63;5.50;;;;;;;;;;5012105;28;20026;-65
2023/03/08 00:53:09;;;;;;;20.77;5.67;;;;;;;;;;5012206;28;20025;-64
2023/03/08 00:55:35;;;;;;;11.03;6.57;;;;;;;;;;5012039;28;20166;-64
2023/03/08 00:58:02;;;;;;;10.63;5.63;;;;;;;;;;5011791;28;20036;-64
2023/03/08 01:00:29;;;;;;;8.03;5.60;;;;;;;;;;5010266;28;20052;-64
2023/03/08 01:02:56;;;;;;;11.47;6.63;;;;;;;;;;5006601;28;20034;-65
2023/03/08 01:05:23;;;;;;;14.20;7.70;;;;;;;;;;5006892;28;20044;-64
2023/03/08 01:07:50;;;;;;;9.10;6.27;;;;;;;;;;5007135;28;20025;-65
2023/03/08 01:10:16;;;;;;;13.17;7.00;;;;;;;;;;5007729;28;20026;-64
2023/03/08 01:12:43;;;;;;;11.57;6.63;;;;;;;;;;5012221;28;20054;-64
2023/03/08 01:15:10;;;;;;;10.17;7.20;;;;;;;;;;5011939;28;20027;-64
2023/03/08 01:17:37;;;;;;;26.93;7.57;;;;;;;;;;5011926;28;20105;-64
2023/03/08 01:20:03;;;;;;;13.40;6.13;;;;;;;;;;5011981;28;20488;-65
2023/03/08 01:22:30;;;;;;;11.33;6.37;;;;;;;;;;5013174;28;20022;-65
2023/03/08 01:24:57;;;;;;;13.77;6.90;;;;;;;;;;5010417;28;20518;-66
2023/03/08 01:27:23;;;;;;;11.40;6.23;;;;;;;;;;5010353;28;20028;-65
2023/03/08 01:29:50;;;;;;;11.70;6.53;;;;;;;;;;5010087;28;20088;-65
2023/03/08 01:32:17;;;;;;;13.03;7.50;;;;;;;;;;5010231;28;20108;-64
2023/03/08 01:34:43;;;;;;;11.60;7.70;;;;;;;;;;5015387;28;20040;-64
2023/03/08 01:37:10;;;;;;;18.97;7.40;;;;;;;;;;5015123;28;20026;-65
2023/03/08 01:39:37;;;;;;;13.90;7.50;;;;;;;;;;5015110;28;20029;-65
2023/03/08 01:42:06;;;;;;;9.37;6.97;;;;;;;;;;5015111;28;20487;-65
2023/03/08 01:44:48;;;;;;;16.73;8.00;;;;;;;;;;5014797;28;20440;-64
2023/03/08 01:47:22;;;;;;;13.07;7.93;;;;;;;;;;5009942;28;20033;-64
2023/03/08 01:49:49;;;;;;;13.60;8.02;;;;;;;;;;5009961;28;20022;-64
2023/03/08 01:52:28;;;;;;;14.03;7.27;;;;;;;;;;5009504;28;20033;-65
2023/03/08 01:55:05;;;;;;;17.73;7.40;;;;;;;;;;5010532;28;20022;-64
2023/03/08 01:57:35;;;;;;;12.10;7.90;;;;;;;;;;5014922;28;20037;-64
2023/03/08 02:00:08;;;;;;;14.50;8.03;;;;;;;;;;5014765;28;20029;-64
2023/03/08 02:02:43;;;;;;;11.00;8.40;;;;;;;;;;5014415;28;20423;-65
2023/03/08 02:05:10;;;;;;;14.77;7.00;;;;;;;;;;5014860;28;20034;-64
2023/03/08 02:07:37;;;;;;;19.97;8.67;;;;;;;;;;5012860;28;20022;-64
2023/03/08 02:10:04;;;;;;;12.47;8.77;;;;;;;;;;5009414;28;20018;-64
2023/03/08 02:12:31;;;;;;;16.13;8.37;;;;;;;;;;5009530;28;20021;-64
2023/03/08 02:14:58;;;;;;;11.77;8.00;;;;;;;;;;5009376;28;20526;-64
2023/03/08 02:17:25;;;;;;;11.33;7.77;;;;;;;;;;5010264;28;20025;-64
2023/03/08 02:20:02;;;;;;;12.37;8.47;;;;;;;;;;5014388;28;20024;-64
2023/03/08 02:22:28;;;;;;;14.60;8.17;;;;;;;;;;5014509;28;20026;-65
2023/03/08 02:24:55;;;;;;;10.63;7.13;;;;;;;;;;5014410;28;20547;-64
2023/03/08 02:27:24;;;;;;;13.60;7.70;;;;;;;;;;5014551;28;20381;-64
2023/03/08 02:29:51;;;;;;;11.87;7.30;;;;;;;;;;5012674;28;20037;-65
2023/03/08 02:32:18;;;;;;;18.17;8.13;;;;;;;;;;5008937;28;20025;-64
2023/03/08 02:34:44;;;;;;;10.27;7.27;;;;;;;;;;5009061;28;20055;-64
2023/03/08 02:37:11;;;;;;;10.67;8.53;;;;;;;;;;5009009;28;20504;-65
2023/03/08 02:39:38;;;;;;;14.80;7.70;;;;;;;;;;5009626;28;20427;-64
2023/03/08 02:42:04;;;;;;;11.23;6.87;;;;;;;;;;5014242;28;20096;-64
2023/03/08 02:44:31;;;;;;;12.57;7.93;;;;;;;;;;5013399;28;20032;-64
2023/03/08 02:46:58;;;;;;;12.30;7.10;;;;;;;;;;5013797;28;20061;-64
2023/03/08 02:49:24;;;;;;;6.13;5.23;;;;;;;;;;5012786;28;20034;-64
2023/03/08 02:51:51;;;;;;;7.10;6.17;;;;;;;;;;5011327;28;20472;-64
2023/03/08 02:54:18;;;;;;;7.23;4.60;;;;;;;;;;5005063;28;20476;-64
2023/03/08 02:56:44;;;;;;;8.93;4.97;;;;;;;;;;5008742;28;20069;-63
2023/03/08 02:59:11;;;;;;;8.53;4.80;;;;;;;;;;5008650;28;20052;-65
2023/03/08 03:01:38;;;;;;;5.13;4.40;;;;;;;;;;5008426;28;20022;-65
2023/03/08 03:04:04;;;;;;;6.80;3.90;;;;;;;;;;5013872;28;20026;-66
2023/03/08 03:06:32;;;;;;;2.43;1.90;;;;;;;;;;5013622;28;20387;-65
2023/03/08 03:08:59;;;;;;;5.30;2.97;;;;;;;;;;5013363;28;20026;-65
2023/03/08 03:11:25;;;;;;;4.53;2.57;;;;;;;;;;5013554;28;20026;-65
2023/03/08 03:13:56;;;;;;;8.13;3.30;;;;;;;;;;5013604;28;20037;-65
2023/03/08 03:16:23;;;;;;;7.80;3.03;;;;;;;;;;5008414;28;20038;-65
2023/03/08 03:18:51;;;;;;;5.63;3.87;;;;;;;;;;5008387;28;20041;-65
2023/03/08 03:21:18;;;;;;;5.60;3.00;;;;;;;;;;5008516;28;20022;-65
2023/03/08 03:23:44;;;;;;;5.13;2.03;;;;;;;;;;5008132;28;20026;-65
2023/03/08 03:26:13;;;;;;;12.57;2.73;;;;;;;;;;5012713;28;20419;-65
2023/03/08 03:28:40;;;;;;;4.33;2.97;;;;;;;;;;5013129;28;20037;-65
2023/03/08 03:31:15;;;;;;;3.37;2.40;;;;;;;;;;5013155;28;20026;-65
2023/03/08 03:33:41;;;;;;;4.13;1.80;;;;;;;;;;5013411;28;20022;-65
2023/03/08 03:36:10;;;;;;;3.90;2.60;;;;;;;;;;5012838;28;20030;-65
2023/03/08 03:38:37;;;;;;;4.80;3.20;;;;;;;;;;5007833;28;20112;-65
2023/03/08 03:41:07;;;;;;;4.23;2.63;;;;;;;;;;5007680;28;20108;-65
2023/03/08 03:43:34;;;;;;;6.73;3.37;;;;;;;;;;5007558;28;20105;-65
2023/03/08 03:46:02;;;;;;;6.97;2.80;;;;;;;;;;5007777;28;20081;-65
2023/03/08 03:48:29;;;;;;;3.30;2.60;;;;;;;;;;5002203;28;20053;-65
2023/03/08 03:51:05;;;;;;;7.60;3.77;;;;;;;;;;5009732;28;20033;-64
2023/03/08 03:53:35;;;;;;;9.50;4.10;;;;;;;;;;5012836;28;20025;-64
2023/03/08 03:56:05;;;;;;;4.10;1.90;;;;;;;;;;5011668;28;20076;-65
2023/03/08 03:58:32;;;;;;;5.47;3.40;;;;;;;;;;5011731;28;20033;-64
2023/03/08 04:00:59;;;;;;;4.53;2.50;;;;;;;;;;5006680;28;20097;-67
2023/03/08 04:03:26;;;;;;;5.07;2.80;;;;;;;;;;5007223;28;20048;-64
2023/03/08 04:05:54;;;;;;;6.20;2.83;;;;;;;;;;5007222;28;20030;-64
2023/03/08 04:08:21;;;;;;;4.37;3.17;;;;;;;;;;5007465;28;20088;-63
2023/03/08 04:10:47;;;;;;;9.00;4.03;;;;;;;;;;5011014;28;20029;-63
2023/03/08 04:13:14;;;;;;;7.27;3.10;;;;;;;;;;5009884;28;20097;-64
2023/03/08 04:15:41;;;;;;;6.57;3.87;;;;;;;;;;4992912;28;20417;-64
2023/03/08 04:18:07;;;;;;;4.40;3.13;;;;;;;;;;4993018;28;20026;-64
2023/03/08 04:20:34;;;;;;;13.07;3.47;;;;;;;;;;4999216;28;20468;-65
2023/03/08 04:23:01;;;;;;;4.87;2.97;;;;;;;;;;5007886;28;20384;-64
2023/03/08 04:25:27;;;;;;;5.20;3.63;;;;;;;;;;5006891;28;20030;-65
2023/03/08 04:27:54;;;;;;;5.83;3.37;;;;;;;;;;5006539;28;20033;-65
2023/03/08 04:30:21;;;;;;;3.60;2.20;;;;;;;;;;5005953;28;20080;-65
2023/03/08 04:32:47;;;;;;;5.20;3.47;;;;;;;;;;5010773;28;20029;-65
2023/03/08 04:35:14;;;;;;;4.10;3.20;;;;;;;;;;5012565;28;20034;-64
2023/03/08 04:37:44;;;;;;;6.70;4.07;;;;;;;;;;5011992;28;20056;-64
2023/03/08 04:40:12;;;;;;;17.43;4.03;;;;;;;;;;5012521;28;20104;-64
2023/03/08 04:42:39;;;;;;;5.87;3.33;;;;;;;;;;5011716;28;20032;-65
2023/03/08 04:45:07;;;;;;;7.13;4.57;;;;;;;;;;5007652;28;20037;-65
2023/03/08 04:47:33;;;;;;;5.57;3.47;;;;;;;;;;5007117;28;20461;-65
2023/03/08 04:50:00;;;;;;;7.50;4.20;;;;;;;;;;5007217;28;20506;-65
2023/03/08 04:52:27;;;;;;;5.83;2.80;;;;;;;;;;5007335;28;20049;-65
2023/03/08 04:54:54;;;;;;;12.33;4.60;;;;;;;;;;5010191;28;20105;-64
2023/03/08 04:57:20;;;;;;;8.00;4.00;;;;;;;;;;5014732;28;20037;-64
2023/03/08 04:59:47;;;;;;;9.47;3.63;;;;;;;;;;5015136;28;20129;-63
2023/03/08 05:02:14;;;;;;;5.07;2.13;;;;;;;;;;5015741;28;20033;-63
2023/03/08 05:04:40;;;;;;;9.33;4.00;;;;;;;;;;5015888;28;20022;-65
2023/03/08 05:07:07;;;;;;;7.93;4.70;;;;;;;;;;5012381;28;20029;-63
2023/03/08 05:09:34;;;;;;;5.60;3.90;;;;;;;;;;5010918;28;20603;-64
2023/03/08 05:12:00;;;;;;;18.70;4.20;;;;;;;;;;5010462;28;20038;-64
2023/03/08 05:14:27;;;;;;;8.03;4.07;;;;;;;;;;5010873;28;20022;-65
2023/03/08 05:16:57;;;;;;;10.67;3.97;;;;;;;;;;5013143;28;20040;-63
2023/03/08 05:19:24;;;;;;;7.47;4.80;;;;;;;;;;5015457;28;20026;-64
2023/03/08 05:21:51;;;;;;;6.23;4.13;;;;;;;;;;5015811;28;20030;-64
2023/03/08 05:24:18;;;;;;;9.37;3.27;;;;;;;;;;5015062;28;20029;-66
2023/03/08 05:26:47;;;;;;;8.40;4.67;;;;;;;;;;5015780;28;20100;-65
2023/03/08 05:29:13;;;;;;;5.07;3.77;;;;;;;;;;5012342;28;20034;-64
2023/03/08 05:31:42;;;;;;;7.37;4.33;;;;;;;;;;5009595;28;20022;-64
2023/03/08 05:34:10;;;;;;;11.27;2.90;;;;;;;;;;5010298;28;20025;-63
2023/03/08 05:36:37;;;;;;;9.00;4.53;;;;;;;;;;5009895;28;20404;-64
2023/03/08 05:39:05;;;;;;;8.60;3.50;;;;;;;;;;5011916;28;20025;-64
2023/03/08 05:41:32;;;;;;;5.47;3.77;;;;;;;;;;5014830;28;20087;-65
2023/03/08 05:44:00;;;;;;;5.13;3.93;;;;;;;;;;5015318;28;20034;-65
2023/03/08 05:46:27;;;;;;;4.73;3.03;;;;;;;;;;5015347;28;20033;-64
2023/03/08 05:48:57;;;;;;;7.37;2.90;;;;;;;;;;5015188;28;20100;-64
2023/03/08 05:51:23;;;;;;;12.23;4.53;;;;;;;;;;4998605;28;20022;-65
2023/03/08 05:53:50;;;;;;;4.53;3.00;;;;;;;;;;5002591;28;20468;-65
2023/03/08 05:56:18;;;;;;;11.23;4.10;;;;;;;;;;5008921;28;20412;-65
2023/03/08 05:58:45;;;;;;;6.50;3.23;;;;;;;;;;5009684;28;20072;-65
2023/03/08 06:01:13;;;;;;;6.70;3.30;;;;;;;;;;5011472;28;20030;-66
2023/03/08 06:03:40;;;;;;;7.60;3.97;;;;;;;;;;5015049;28;20076;-65
2023/03/08 06:06:07;;;;;;;6.20;4.00;;;;;;;;;;5014913;28;20037;-66
2023/03/08 06:08:34;;;;;;;5.67;3.40;;;;;;;;;;5014337;28;20034;-66
2023/03/08 06:11:00;;;;;;;7.10;4.37;;;;;;;;;;5015030;28;20030;-65
2023/03/08 06:13:27;;;;;;;6.57;3.97;;;;;;;;;;5012367;28;20037;-66
2023/03/08 06:15:57;;;;;;;4.93;3.60;;;;;;;;;;5009907;28;20040;-65
2023/03/08 06:18:24;;;;;;;5.60;4.10;;;;;;;;;;5009191;28;20726;-65
2023/03/08 06:20:58;;;;;;;10.60;2.33;;;;;;;;;;5009661;28;20080;-65
2023/03/08 06:23:25;;;;;;;3.40;2.28;;;;;;;;;;4991525;28;20491;-65
2023/03/08 06:25:52;;;;;;;7.57;3.67;;;;;;;;;;4994945;28;20049;-64
2023/03/08 06:28:19;;;;;;;5.60;3.37;;;;;;;;;;4994517;28;20461;-65
2023/03/08 06:30:50;;;;;;;6.80;5.07;;;;;;;;;;4995051;28;20030;-64
2023/03/08 06:33:17;;;;;;;4.07;3.20;;;;;;;;;;4995319;28;20039;-64
2023/03/08 06:35:43;;;;;;;5.43;3.13;;;;;;;;;;4998657;28;20065;-65
2023/03/08 06:38:10;;;;;;;4.90;3.33;;;;;;;;;;5009093;28;20029;-65
2023/03/08 06:40:37;;;;;;;5.00;3.30;;;;;;;;;;5009572;28;20056;-65
2023/03/08 06:43:04;;;;;;;4.87;3.07;;;;;;;;;;5009501;28;20076;-66
2023/03/08 06:45:32;;;;;;;4.57;3.27;;;;;;;;;;5009270;28;20381;-65
2023/03/08 06:47:59;;;;;;;6.37;2.90;;;;;;;;;;5014177;28;20033;-65
2023/03/08 06:50:26;;;;;;;4.50;2.87;;;;;;;;;;5013890;28;20030;-64
2023/03/08 06:52:53;;;;;;;3.87;2.67;;;;;;;;;;5014297;28;20022;-65
2023/03/08 06:55:19;;;;;;;2.83;2.10;;;;;;;;;;5013939;28;20026;-65
2023/03/08 06:57:46;;;;;;;4.53;3.37;;;;;;;;;;5012761;28;20042;-65
2023/03/08 07:00:13;;;;;;;13.57;4.03;;;;;;;;;;5008829;28;20052;-65
2023/03/08 07:02:40;;;;;;;7.83;4.40;;;;;;;;;;5007791;28;20067;-65
2023/03/08 07:05:07;;;;;;;33.27;5.00;;;;;;;;;;5008364;28;20038;-65
2023/03/08 07:07:35;;;;;;;4.40;3.00;;;;;;;;;;5008691;28;20026;-65
2023/03/08 07:10:02;;;;;;;4.23;3.00;;;;;;;;;;5014195;28;20053;-66
2023/03/08 07:12:31;;;;;;;2.60;1.97;;;;;;;;;;5013696;28;20026;-64
2023/03/08 07:14:58;;;;;;;2.97;1.80;;;;;;;;;;5013543;28;20049;-65
2023/03/08 07:17:25;;;;;;;7.93;2.40;;;;;;;;;;5013184;28;20420;-63
2023/03/08 07:19:51;;;;;;;3.87;2.63;;;;;;;;;;5011776;28;20504;-65
2023/03/08 07:22:18;;;;;;;5.13;2.30;;;;;;;;;;5008237;28;20459;-65
2023/03/08 07:24:47;;;;;;;4.57;2.73;;;;;;;;;;5008291;28;20026;-66
2023/03/08 07:27:14;;;;;;;3.40;2.30;;;;;;;;;;5008150;28;20022;-66
2023/03/08 07:29:40;;;;;;;6.10;2.33;;;;;;;;;;5008044;28;20506;-63
2023/03/08 07:32:07;;;;;;;4.07;2.20;;;;;;;;;;5013215;28;20029;-65
2023/03/08 07:34:34;;;;;;;4.07;2.57;;;;;;;;;;5012968;28;20061;-65
2023/03/08 07:37:00;;;;;;;3.90;3.10;;;;;;;;;;5012938;28;20046;-65
2023/03/08 07:39:27;;;;;;;6.47;2.80;;;;;;;;;;5013058;28;20030;-65
2023/03/08 07:41:54;;;;;;;5.57;3.23;;;;;;;;;;5013362;28;20469;-65
2023/03/08 07:44:20;;;;;;;8.43;3.10;;;;;;;;;;5007573;28;20496;-66
2023/03/08 07:46:47;;;;;;;8.07;3.30;;;;;;;;;;5008163;28;20084;-65
2023/03/08 07:49:14;;;;;;;7.20;3.90;;;;;;;;;;5007941;28;20018;-66
2023/03/08 07:51:40;;;;;;;3.83;2.53;;;;;;;;;;5007598;28;20026;-66
2023/03/08 07:54:09;;;;;;;3.63;2.90;;;;;;;;;;5012834;28;20029;-65
2023/03/08 07:56:35;;;;;;;3.33;2.40;;;;;;;;;;5013065;28;20052;-65
2023/03/08 07:59:02;;;;;;;6.87;3.63;;;;;;;;;;5012565;28;20033;-66
2023/03/08 08:01:29;;;;;;;3.43;2.47;;;;;;;;;;5013160;28;20079;-65
2023/03/08 08:03:55;;;;;;;3.43;2.33;;;;;;;;;;5012895;28;20051;-65
2023/03/08 08:06:22;;;;;;;4.67;2.90;;;;;;;;;;5008537;28;20037;-66
2023/03/08 08:08:49;;;;;;;3.30;2.47;;;;;;;;;;5007388;28;20030;-65
2023/03/08 08:11:16;;;;;;;3.27;2.33;;;;;;;;;;5007785;28;20022;-66
2023/03/08 08:13:45;;;;;;;4.03;3.03;;;;;;;;;;5007842;28;20385;-65
2023/03/08 08:16:12;;;;;;;3.40;2.13;;;;;;;;;;5011955;28;20026;-66
2023/03/08 08:18:39;;;;;;;3.57;2.23;;;;;;;;;;5013050;28;20022;-65
2023/03/08 08:21:07;;;;;;;4.10;2.57;;;;;;;;;;5012555;28;20038;-65
2023/03/08 08:23:34;;;;;;;2.73;1.80;;;;;;;;;;5012702;28;20476;-65
2023/03/08 08:26:04;;;;;;;2.07;1.60;;;;;;;;;;5012665;28;20049;-65
2023/03/08 08:28:31;;;;;;;5.57;2.43;;;;;;;;;;5008402;28;20034;-65
2023/03/08 08:31:02;;;;;;;5.50;3.37;;;;;;;;;;5010296;28;20579;-65
2023/03/08 08:33:29;;;;;;;4.80;3.47;;;;;;;;;;5011705;28;20049;-65
2023/03/08 08:35:56;;;;;;;4.90;2.57;;;;;;;;;;5011184;28;20553;-65
2023/03/08 08:38:23;;;;;;;3.20;2.40;;;;;;;;;;5014972;28;20034;-65
2023/03/08 08:40:50;;;;;;;5.67;3.63;;;;;;;;;;5016578;28;20547;-65
2023/03/08 08:43:17;;;;;;;2.43;1.93;;;;;;;;;;5016153;28;20034;-65
2023/03/08 08:45:44;;;;;;;5.73;2.43;;;;;;;;;;5016309;28;20441;-65
2023/03/08 08:48:11;;;;;;;2.77;2.37;;;;;;;;;;5017099;28;20076;-65
2023/03/08 08:50:39;;;;;;;3.50;2.57;;;;;;;;;;5012714;28;20041;-65
2023/03/08 08:53:06;;;;;;;3.33;1.93;;;;;;;;;;5011066;28;20084;-65
2023/03/08 08:55:33;;;;;;;2.87;2.13;;;;;;;;;;5011078;28;20527;-65
2023/03/08 08:58:00;;;;;;;4.47;2.63;;;;;;;;;;5010797;28;20033;-65
2023/03/08 09:00:27;;;;;;;3.57;2.60;;;;;;;;;;5013845;28;20018;-65
2023/03/08 09:02:54;;;;;;;2.80;2.23;;;;;;;;;;5016304;28;20025;-65
2023/03/08 09:05:20;;;;;;;4.13;2.60;;;;;;;;;;5016437;28;20033;-65
2023/03/08 09:07:47;;;;;;;3.07;2.37;;;;;;;;;;5015664;28;20026;-65
2023/03/08 09:10:14;;;;;;;2.93;2.07;;;;;;;;;;5015618;28;20539;-65
2023/03/08 09:12:41;;;;;;;5.33;2.37;;;;;;;;;;5012900;28;20026;-65
2023/03/08 09:15:10;;;;;;;4.90;2.70;;;;;;;;;;5010842;28;20486;-65
2023/03/08 09:17:37;;;;;;;4.93;3.07;;;;;;;;;;5011125;28;20514;-65
2023/03/08 09:20:05;;;;;;;5.63;3.73;;;;;;;;;;5010428;28;20083;-65
2023/03/08 09:22:33;;;;;;;3.93;2.90;;;;;;;;;;5013683;28;20373;-66
2023/03/08 09:25:00;;;;;;;3.73;2.70;;;;;;;;;;5015926;28;20069;-65
2023/03/08 09:27:27;;;;;;;2.80;2.17;;;;;;;;;;5015767;28;20045;-65
2023/03/08 09:29:53;;;;;;;2.97;2.17;;;;;;;;;;5015579;28;20036;-65
2023/03/08 09:32:20;;;;;;;5.73;3.83;;;;;;;;;;5015131;28;20017;-65
2023/03/08 09:34:47;;;;;;;6.77;4.47;;;;;;;;;;5013300;28;20026;-65
2023/03/08 09:37:13;;;;;;;6.27;4.77;;;;;;;;;;5010185;28;20053;-65
2023/03/08 09:39:40;;;;;;;5.13;3.63;;;;;;;;;;5010494;28;20022;-65
2023/03/08 09:42:17;;;;;;;5.47;3.80;;;;;;;;;;5009395;28;20094;-65
2023/03/08 09:44:53;;;;;;;8.77;3.50;;;;;;;;;;5012658;28;20022;-65
2023/03/08 09:47:25;;;;;;;5.30;3.70;;;;;;;;;;5015781;28;20026;-65
2023/03/08 09:49:54;;;;;;;9.87;5.03;;;;;;;;;;5015610;28;20542;-65
2023/03/08 09:52:42;;;;;;;4.00;2.90;;;;;;;;;;5016191;28;20026;-65
2023/03/08 09:55:29;;;;;;;4.63;2.60;;;;;;;;;;5015157;28;20025;-65
2023/03/08 09:58:18;;;;;;;8.00;3.93;;;;;;;;;;5010238;28;20083;-65
2023/03/08 10:00:45;;;;;;;5.53;3.97;;;;;;;;;;5004286;28;20068;-65
2023/03/08 10:03:15;;;;;;;5.30;3.70;;;;;;;;;;5009423;28;20048;-65
2023/03/08 10:05:48;;;;;;;12.10;3.67;;;;;;;;;;5010133;28;20535;-65
2023/03/08 10:08:16;;;;;;;4.17;2.80;;;;;;;;;;5014734;28;20503;-65
2023/03/08 10:10:54;;;;;;;4.43;2.60;;;;;;;;;;5014629;28;20026;-66
2023/03/08 10:13:35;;;;;;;6.60;3.90;;;;;;;;;;5015008;28;20023;-65
2023/03/08 10:16:21;;;;;;;8.33;5.30;;;;;;;;;;5014830;28;20445;-65
2023/03/08 10:19:10;;;;;;;8.10;3.90;;;;;;;;;;5013112;28;20060;-65
2023/03/08 10:21:38;;;;;;;5.77;4.13;;;;;;;;;;4990121;28;20044;-64
2023/03/08 10:24:13;;;;;;;6.07;3.87;;;;;;;;;;5009184;28;20048;-65
2023/03/08 10:26:41;;;;;;;4.50;3.20;;;;;;;;;;5009402;28;20025;-65
2023/03/08 10:29:11;;;;;;;4.90;3.40;;;;;;;;;;5011060;28;20080;-65
2023/03/08 10:31:42;;;;;;;6.57;4.30;;;;;;;;;;5014612;28;20029;-65
2023/03/08 10:34:09;;;;;;;5.53;3.57;;;;;;;;;;5014445;28;20333;-65
2023/03/08 10:36:46;;;;;;;7.23;5.23;;;;;;;;;;5014487;28;20077;-65
2023/03/08 10:39:15;;;;;;;5.33;4.33;;;;;;;;;;5014279;28;20018;-65
2023/03/08 10:42:01;;;;;;;4.73;3.53;;;;;;;;;;5011544;28;20669;-65
2023/03/08 10:44:35;;;;;;;6.10;4.63;;;;;;;;;;5008457;28;20346;-65
2023/03/08 10:47:04;;;;;;;7.00;5.10;;;;;;;;;;5008943;28;20021;-65
2023/03/08 10:49:31;;;;;;;9.87;3.70;;;;;;;;;;5008870;28;20267;-65
2023/03/08 10:51:59;;;;;;;9.00;4.00;;;;;;;;;;5012395;28;20322;-65
2023/03/08 10:54:26;;;;;;;2.97;2.33;;;;;;;;;;5013968;28;20262;-65
2023/03/08 10:56:57;;;;;;;3.43;2.87;;;;;;;;;;5013344;28;20285;-65
2023/03/08 10:59:31;;;;;;;5.87;4.30;;;;;;;;;;5013780;28;20267;-65
2023/03/08 11:02:17;;;;;;;4.80;2.90;;;;;;;;;;5014633;28;20013;-65
2023/03/08 11:04:57;;;;;;;5.40;3.33;;;;;;;;;;5009439;28;20266;-65
2023/03/08 11:07:28;;;;;;;5.70;3.57;;;;;;;;;;5008664;28;20646;-66
2023/03/08 11:10:14;;;;;;;6.23;4.10;;;;;;;;;;5009052;28;20263;-65
2023/03/08 11:12:41;;;;;;;4.10;3.27;;;;;;;;;;5008110;28;20776;-65
2023/03/08 11:15:17;;;;;;;4.63;3.43;;;;;;;;;;5013148;28;20256;-64
2023/03/08 11:17:51;;;;;;;9.03;5.37;;;;;;;;;;5013785;28;20298;-65
2023/03/08 11:20:44;;;;;;;4.88;3.35;;;;;;;;;;5013544;28;20248;-65
2023/03/08 11:23:11;;;;;;;8.47;4.37;;;;;;;;;;5011688;28;20100;-64
2023/03/08 11:25:40;;;;;;;5.80;4.17;;;;;;;;;;5012184;28;20713;-65
2023/03/08 11:28:26;;;;;;;5.63;3.60;;;;;;;;;;4988703;28;20264;-64
2023/03/08 11:31:01;;;;;;;5.90;4.07;;;;;;;;;;4988560;28;20264;-64
2023/03/08 11:33:51;;;;;;;6.07;4.73;;;;;;;;;;4988867;28;20088;-64
2023/03/08 11:36:29;;;;;;;6.27;4.63;;;;;;;;;;4991164;28;20288;-65
2023/03/08 11:39:14;;;;;;;4.77;3.73;;;;;;;;;;4994087;28;20259;-65
2023/03/08 11:41:53;;;;;;;7.20;3.42;;;;;;;;;;5008873;28;20746;-65
2023/03/08 11:44:38;;;;;;;9.43;6.30;;;;;;;;;;5012979;28;20033;-65
2023/03/08 11:47:04;;;;;;;4.50;3.38;;;;;;;;;;5012714;28;20240;-65
2023/03/08 11:49:37;;;;;;;9.17;3.37;;;;;;;;;;5008773;28;20028;-64
2023/03/08 11:52:15;;;;;;;4.93;3.33;;;;;;;;;;5008260;28;20269;-64
2023/03/08 11:55:07;;;;;;;16.57;5.17;;;;;;;;;;5007354;28;20295;-65
2023/03/08 11:57:43;;;;;;;5.03;3.90;;;;;;;;;;5007896;28;20326;-64
2023/03/08 12:00:29;;;;;;;3.10;2.13;;;;;;;;;;5013400;28;20260;-64
2023/03/08 12:02:58;;;;;;;3.93;3.10;;;;;;;;;;5012737;28;20259;-64
2023/03/08 12:05:33;;;;;;;4.83;3.37;;;;;;;;;;5012690;28;20780;-64
2023/03/08 12:08:08;;;;;;;8.50;3.95;;;;;;;;;;5012565;28;20255;-64
2023/03/08 12:10:35;;;;;;;8.70;3.83;;;;;;;;;;5010131;28;20495;-64
2023/03/08 12:13:06;;;;;;;5.23;3.50;;;;;;;;;;5007765;28;20513;-64
2023/03/08 12:15:43;;;;;;;7.50;5.23;;;;;;;;;;5007362;28;21069;-65
2023/03/08 12:18:19;;;;;;;3.37;2.63;;;;;;;;;;5007717;28;20286;-64
2023/03/08 12:20:46;;;;;;;5.27;4.03;;;;;;;;;;5010365;28;20764;-64
2023/03/08 12:23:35;;;;;;;8.33;4.77;;;;;;;;;;5012766;28;20329;-64
2023/03/08 12:26:18;;;;;;;6.13;3.77;;;;;;;;;;5012753;28;20264;-64
2023/03/08 12:28:48;;;;;;;7.23;4.37;;;;;;;;;;5012384;28;20662;-64
2023/03/08 12:31:18;;;;;;;26.93;3.60;;;;;;;;;;5012708;28;20252;-64
2023/03/08 12:33:48;;;;;;;6.17;4.10;;;;;;;;;;5007821;28;20259;-64
2023/03/08 12:36:17;;;;;;;12.07;4.33;;;;;;;;;;5006928;28;20301;-64
2023/03/08 12:38:45;;;;;;;6.07;4.33;;;;;;;;;;5007877;28;20274;-65
2023/03/08 12:41:26;;;;;;;8.20;4.20;;;;;;;;;;5007286;28;21793;-64
2023/03/08 12:44:03;;;;;;;9.13;4.73;;;;;;;;;;5012109;28;20317;-64
2023/03/08 12:46:50;;;;;;;4.27;2.77;;;;;;;;;;5012163;28;20255;-64
2023/03/08 12:49:21;;;;;;;14.87;4.73;;;;;;;;;;5012632;28;20310;-64
2023/03/08 12:51:56;;;;;;;4.80;3.87;;;;;;;;;;5012500;28;20252;-64
2023/03/08 12:54:23;;;;;;;7.13;5.00;;;;;;;;;;5011855;28;20654;-64
2023/03/08 12:56:51;;;;;;;5.40;4.03;;;;;;;;;;5006668;28;20493;-64
2023/03/08 12:59:18;;;;;;;7.13;4.23;;;;;;;;;;5006863;28;20271;-64
2023/03/08 13:01:59;;;;;;;8.43;4.70;;;;;;;;;;5006149;28;20665;-64
2023/03/08 13:04:38;;;;;;;4.23;3.00;;;;;;;;;;5007663;28;20256;-64
2023/03/08 13:07:06;;;;;;;5.90;3.13;;;;;;;;;;5012041;28;20360;-64
2023/03/08 13:09:41;;;;;;;5.97;3.97;;;;;;;;;;5012488;28;20341;-64
2023/03/08 13:12:08;;;;;;;4.97;3.63;;;;;;;;;;5012705;28;20338;-64
2023/03/08 13:14:53;;;;;;;10.73;4.40;;;;;;;;;;5011579;28;20271;-64
2023/03/08 13:17:32;;;;;;;8.00;4.68;;;;;;;;;;5010457;28;20295;-64
2023/03/08 13:20:01;;;;;;;9.60;4.43;;;;;;;;;;5010582;28;20022;-64
2023/03/08 13:22:40;;;;;;;30.00;4.60;;;;;;;;;;5010193;28;20342;-64
2023/03/08 13:25:14;;;;;;;6.17;4.23;;;;;;;;;;5010140;28;20673;-64
2023/03/08 13:27:49;;;;;;;6.80;3.30;;;;;;;;;;5013030;28;20750;-65
2023/03/08 13:30:18;;;;;;;9.95;5.55;;;;;;;;;;5015228;28;20091;-65
2023/03/08 13:32:45;;;;;;;12.53;6.87;;;;;;;;;;5016009;28;20025;-65
2023/03/08 13:35:14;;;;;;;8.23;5.80;;;;;;;;;;5015426;28;20259;-65
2023/03/08 13:37:41;;;;;;;13.87;7.30;;;;;;;;;;5014918;28;20309;-65
2023/03/08 13:40:15;;;;;;;32.57;8.13;;;;;;;;;;5011765;28;20263;-65
2023/03/08 13:43:04;;;;;;;11.80;6.50;;;;;;;;;;5010064;28;20271;-66
2023/03/08 13:45:31;;;;;;;6.90;5.57;;;;;;;;;;5010036;28;20053;-65
2023/03/08 13:47:59;;;;;;;8.83;5.93;;;;;;;;;;5009982;28;20271;-65
2023/03/08 13:50:41;;;;;;;12.77;5.87;;;;;;;;;;5013702;28;20125;-65
2023/03/08 13:53:10;;;;;;;12.70;6.93;;;;;;;;;;5015480;28;20064;-65
2023/03/08 13:55:42;;;;;;;10.33;5.63;;;;;;;;;;5014897;28;20120;-65
2023/03/08 13:58:29;;;;;;;11.47;7.03;;;;;;;;;;5014618;28;20076;-65
2023/03/08 14:01:09;;;;;;;5.33;3.80;;;;;;;;;;5007405;28;20041;-65
2023/03/08 14:03:36;;;;;;;11.83;7.23;;;;;;;;;;5009730;28;20057;-65
2023/03/08 14:06:03;;;;;;;21.27;7.83;;;;;;;;;;5009291;28;20030;-66
2023/03/08 14:08:29;;;;;;;13.03;5.60;;;;;;;;;;5009451;28;20476;-66
2023/03/08 14:11:01;;;;;;;9.17;6.40;;;;;;;;;;5009423;28;20456;-66
2023/03/08 14:13:37;;;;;;;8.77;3.70;;;;;;;;;;5014315;28;20033;-66
2023/03/08 14:16:05;;;;;;;5.73;4.33;;;;;;;;;;5014169;28;20350;-66
2023/03/08 14:18:50;;;;;;;7.90;4.90;;;;;;;;;;5014770;28;20053;-65
2023/03/08 14:21:16;;;;;;;8.25;4.97;;;;;;;;;;5014581;28;20050;-65
2023/03/08 14:23:46;;;;;;;11.13;5.73;;;;;;;;;;5013120;28;20025;-66
2023/03/08 14:26:31;;;;;;;12.17;5.03;;;;;;;;;;5008550;28;20471;-66
2023/03/08 14:29:13;;;;;;;7.47;5.75;;;;;;;;;;5008586;28;20436;-66
2023/03/08 14:31:51;;;;;;;10.13;5.90;;;;;;;;;;5008826;28;20026;-66
2023/03/08 14:34:19;;;;;;;16.20;6.40;;;;;;;;;;5011466;28;20465;-66
2023/03/08 14:36:54;;;;;;;19.03;9.17;;;;;;;;;;5014068;28;20054;-66
2023/03/08 14:39:23;;;;;;;9.37;6.10;;;;;;;;;;5014269;28;20101;-66
2023/03/08 14:41:50;;;;;;;11.60;4.93;;;;;;;;;;5014238;28;20097;-66
2023/03/08 14:44:20;;;;;;;7.13;5.83;;;;;;;;;;5013614;28;20437;-66
2023/03/08 14:46:47;;;;;;;15.37;8.27;;;;;;;;;;5010204;28;20030;-66
2023/03/08 14:49:21;;;;;;;15.57;9.20;;;;;;;;;;5008525;28;20033;-66
2023/03/08 14:51:48;;;;;;;16.67;10.45;;;;;;;;;;5008561;28;20118;-66
2023/03/08 14:54:31;;;;;;;39.97;12.57;;;;;;;;;;5008688;28;20084;-66